Weather at El Paso International Airport

Public forecast

Using degrees Fahrenheit for public forecast. Weather courtesy of forecast.io.

Current aviation weather report (METAR) for El Paso International Airport

Retrieved 2020/09/24 23:51 UTC (50 minutes ago):

KELP 242351Z 20005KT 10SM FEW120 34/00 A2997 RMK AO2 SLP072 T03390000 10356 20306 56013

Aviation forecast (TAF) for El Paso International Airport

Retrieved 2020-09-25 00:22 UTC (19 minutes ago):

TAF KELP 242320Z 2500/2524 10005KT P6SM FEW100 FM252200 27006KT P6SM SKC